createdAt,value
2022-10-24T00:03:26.105Z,12.37
2022-10-24T00:08:27.812Z,12.40
2022-10-24T00:13:29.606Z,12.40
2022-10-24T00:18:31.274Z,12.45
2022-10-24T00:23:33.139Z,12.47
2022-10-24T00:28:36.653Z,12.48
2022-10-24T00:33:38.433Z,12.51
2022-10-24T00:38:40.121Z,12.54
2022-10-24T00:43:41.872Z,12.59
2022-10-24T00:48:53.918Z,12.63
2022-10-24T00:54:03.825Z,12.66
2022-10-24T00:59:08.914Z,12.69
2022-10-24T01:04:13.488Z,12.68
2022-10-24T01:09:40.187Z,12.70
2022-10-24T01:14:48.093Z,12.71
2022-10-24T01:20:07.726Z,12.71
2022-10-24T01:25:09.256Z,12.76
2022-10-24T01:30:16.294Z,12.76
2022-10-24T01:35:37.151Z,12.78
2022-10-24T01:41:00.393Z,12.78
2022-10-24T01:46:08.138Z,12.80
2022-10-24T01:51:13.571Z,12.83
2022-10-24T01:56:15.151Z,12.88
2022-10-24T02:01:22.551Z,12.86
2022-10-24T02:06:31.358Z,12.86
2022-10-24T02:11:34.899Z,12.85
2022-10-24T02:16:36.769Z,12.82
2022-10-24T02:21:46.646Z,12.82
2022-10-24T02:26:57.288Z,12.82
2022-10-24T02:31:59.823Z,12.79
2022-10-24T02:37:03.946Z,12.80
2022-10-24T02:42:08.581Z,12.83
2022-10-24T02:47:13.023Z,12.83
2022-10-24T02:52:15.411Z,12.85
2022-10-24T02:57:17.457Z,12.92
2022-10-24T03:02:19.582Z,12.95
2022-10-24T03:07:21.306Z,12.98
2022-10-24T03:12:24.255Z,12.99
2022-10-24T03:17:26.041Z,13.03
2022-10-24T03:22:30.601Z,13.05
2022-10-24T03:27:34.103Z,13.06
2022-10-24T03:32:36.107Z,13.04
2022-10-24T03:37:37.754Z,13.00
2022-10-24T03:42:39.734Z,13.00
2022-10-24T03:47:41.431Z,13.01
2022-10-24T03:52:43.539Z,13.14
2022-10-24T03:57:45.773Z,13.11
2022-10-24T04:02:47.937Z,13.11
2022-10-24T04:07:49.614Z,13.11
2022-10-24T04:12:51.342Z,13.11
2022-10-24T04:17:52.982Z,13.14
2022-10-24T04:22:54.696Z,13.19
2022-10-24T04:27:56.296Z,13.17
2022-10-24T04:32:58.251Z,13.14
2022-10-24T04:37:59.917Z,13.13
2022-10-24T04:43:01.560Z,13.15
2022-10-24T04:48:03.841Z,13.12
2022-10-24T04:53:05.445Z,13.13
2022-10-24T04:58:09.039Z,13.10
2022-10-24T05:03:13.783Z,13.07
2022-10-24T05:08:16.146Z,13.10
2022-10-24T05:13:17.839Z,13.15
2022-10-24T05:18:19.467Z,13.17
2022-10-24T05:23:21.040Z,13.24
2022-10-24T05:28:23.051Z,13.26
2022-10-24T05:33:24.935Z,13.31
2022-10-24T05:38:26.694Z,13.27
2022-10-24T05:43:28.346Z,13.30
2022-10-24T05:48:30.009Z,13.32
2022-10-24T05:53:31.697Z,13.34
2022-10-24T05:58:35.533Z,13.36
2022-10-24T06:03:37.435Z,13.38
2022-10-24T06:08:39.270Z,13.37
2022-10-24T06:13:41.042Z,13.39
2022-10-24T06:18:45.027Z,13.34
2022-10-24T06:23:46.848Z,13.35
2022-10-24T06:28:48.524Z,13.33
2022-10-24T06:33:50.333Z,13.36
2022-10-24T06:38:52.330Z,13.37
2022-10-24T06:43:57.324Z,13.33
2022-10-24T06:49:13.105Z,13.29
2022-10-24T06:54:27.741Z,13.07
2022-10-24T06:59:31.860Z,12.99
2022-10-24T07:04:33.584Z,12.95
2022-10-24T07:09:35.327Z,12.90
2022-10-24T07:14:37.359Z,12.85
2022-10-24T07:19:39.329Z,12.79
2022-10-24T07:24:41.246Z,12.70
2022-10-24T07:29:43.320Z,12.69
2022-10-24T07:34:47.508Z,12.65
2022-10-24T07:39:49.342Z,12.64
2022-10-24T07:44:53.748Z,12.67
2022-10-24T07:49:55.873Z,12.62
2022-10-24T07:54:58.409Z,12.58
2022-10-24T08:00:00.262Z,12.47
2022-10-24T08:05:03.435Z,12.46
2022-10-24T08:10:11.318Z,12.31
2022-10-24T08:15:13.786Z,12.47
2022-10-24T08:20:15.412Z,12.56
2022-10-24T08:25:17.150Z,12.72
2022-10-24T08:30:20.330Z,12.72
2022-10-24T08:35:22.068Z,12.78
2022-10-24T08:40:23.928Z,12.82
2022-10-24T08:45:34.316Z,12.88
2022-10-24T08:50:38.310Z,13.03
2022-10-24T08:55:50.574Z,13.02
2022-10-24T09:00:55.802Z,13.17
2022-10-24T09:06:03.916Z,13.35
2022-10-24T09:11:07.179Z,13.39
2022-10-24T09:16:19.915Z,13.57
2022-10-24T09:21:22.883Z,13.57
2022-10-24T09:26:29.748Z,13.76
2022-10-24T09:31:31.636Z,13.83
2022-10-24T09:36:33.638Z,13.73
2022-10-24T09:41:36.486Z,13.88
2022-10-24T09:46:46.184Z,13.93
2022-10-24T09:51:52.247Z,13.97
2022-10-24T09:57:12.316Z,14.01
2022-10-24T10:02:14.243Z,13.87
2022-10-24T10:07:25.913Z,13.83
2022-10-24T10:12:34.655Z,13.97
2022-10-24T10:17:49.077Z,14.13
2022-10-24T10:22:50.837Z,14.10
2022-10-24T10:27:53.029Z,14.12
2022-10-24T10:33:17.412Z,14.24
2022-10-24T10:38:34.300Z,14.58
2022-10-24T10:43:48.098Z,14.67
2022-10-24T10:49:28.192Z,14.65
2022-10-24T10:54:36.034Z,14.35
2022-10-24T10:59:59.441Z,14.09
2022-10-24T11:05:42.399Z,14.15
2022-10-24T11:10:54.997Z,14.17
2022-10-24T11:16:01.852Z,14.28
2022-10-24T11:21:09.664Z,14.24
2022-10-24T11:26:35.720Z,14.35
2022-10-24T11:31:42.422Z,14.41
2022-10-24T11:36:59.936Z,14.55
2022-10-24T11:42:29.481Z,14.57
2022-10-24T11:47:46.749Z,14.19
2022-10-24T11:52:51.802Z,14.03
2022-10-24T11:58:02.666Z,13.78
2022-10-24T12:03:32.152Z,13.67
2022-10-24T12:08:33.796Z,13.56
2022-10-24T12:13:35.407Z,13.48
2022-10-24T12:18:45.328Z,13.64
2022-10-24T12:24:22.399Z,13.65
2022-10-24T12:29:26.092Z,13.43
2022-10-24T12:34:27.658Z,13.44
2022-10-24T12:39:31.793Z,13.46
2022-10-24T12:44:33.591Z,13.41
2022-10-24T12:49:35.393Z,13.51
2022-10-24T12:54:45.329Z,13.50
2022-10-24T12:59:58.674Z,13.45
2022-10-24T13:05:17.835Z,13.48
2022-10-24T13:10:27.801Z,13.45
2022-10-24T13:15:44.223Z,13.45
2022-10-24T13:20:51.585Z,13.36
2022-10-24T13:25:57.224Z,13.40
2022-10-24T13:30:58.817Z,13.56
2022-10-24T13:36:09.756Z,13.53
2022-10-24T13:41:14.311Z,13.47
2022-10-24T13:46:45.186Z,13.54
2022-10-24T13:51:52.593Z,13.45
2022-10-24T13:56:57.162Z,13.30
2022-10-24T14:02:06.348Z,13.39
2022-10-24T14:07:09.203Z,13.29
2022-10-24T14:12:25.068Z,13.24
2022-10-24T14:17:33.716Z,13.27
2022-10-24T14:22:41.463Z,13.32
2022-10-24T14:27:44.055Z,13.35
2022-10-24T14:32:46.395Z,13.34
2022-10-24T14:37:51.330Z,13.38
2022-10-24T14:42:55.197Z,13.38
2022-10-24T14:48:00.864Z,13.37
2022-10-24T14:53:04.737Z,13.36
2022-10-24T14:58:06.620Z,13.27
2022-10-24T15:03:10.711Z,13.31
2022-10-24T15:08:27.838Z,13.31
2022-10-24T15:13:33.071Z,13.30
2022-10-24T15:18:43.263Z,13.26
2022-10-24T15:23:55.763Z,13.22
2022-10-24T15:29:03.757Z,13.27
2022-10-24T15:34:07.818Z,13.24
2022-10-24T15:39:18.566Z,13.22
2022-10-24T15:44:30.916Z,13.17
2022-10-24T15:49:34.818Z,13.14
2022-10-24T15:54:36.489Z,13.06
2022-10-24T15:59:38.580Z,13.00
2022-10-24T16:04:40.361Z,12.98
2022-10-24T16:09:42.257Z,12.97
2022-10-24T16:14:43.998Z,12.98
2022-10-24T16:19:45.884Z,12.93
2022-10-24T16:24:48.873Z,12.90
2022-10-24T16:29:50.640Z,12.88
2022-10-24T16:34:52.621Z,12.79
2022-10-24T16:39:54.309Z,12.81
2022-10-24T16:44:56.135Z,12.80
2022-10-24T16:50:00.258Z,12.77
2022-10-24T16:55:01.965Z,12.80
2022-10-24T17:00:06.266Z,12.83
2022-10-24T17:05:08.330Z,12.78
2022-10-24T17:10:11.890Z,12.78
2022-10-24T17:15:16.812Z,12.75
2022-10-24T17:20:21.196Z,12.67
2022-10-24T17:25:26.452Z,12.65
2022-10-24T17:30:38.449Z,12.61
2022-10-24T17:35:47.798Z,12.58
2022-10-24T17:40:50.466Z,12.60
2022-10-24T17:45:53.779Z,12.59
2022-10-24T17:50:57.976Z,12.57
2022-10-24T17:55:59.623Z,12.58
2022-10-24T18:01:01.408Z,12.58
2022-10-24T18:06:05.646Z,12.55
2022-10-24T18:11:10.902Z,12.52
2022-10-24T18:16:15.632Z,12.50
2022-10-24T18:21:24.402Z,12.48
2022-10-24T18:26:27.194Z,12.46
2022-10-24T18:31:30.072Z,12.47
2022-10-24T18:36:32.056Z,12.47
2022-10-24T18:41:39.740Z,12.42
2022-10-24T18:46:41.701Z,12.41
2022-10-24T18:52:01.447Z,12.38
2022-10-24T18:57:16.325Z,12.33
2022-10-24T19:02:34.971Z,12.29
2022-10-24T19:07:36.939Z,12.23
2022-10-24T19:12:38.833Z,12.24
2022-10-24T19:17:41.106Z,12.26
2022-10-24T19:22:42.921Z,12.21
2022-10-24T19:27:44.995Z,12.21
2022-10-24T19:32:48.072Z,12.16
2022-10-24T19:37:50.127Z,12.16
2022-10-24T19:42:52.599Z,12.15
2022-10-24T19:47:55.599Z,12.10
2022-10-24T19:52:57.557Z,12.06
2022-10-24T19:57:59.271Z,12.04
2022-10-24T20:03:00.985Z,12.09
2022-10-24T20:08:02.838Z,12.07
2022-10-24T20:13:04.459Z,12.15
2022-10-24T20:18:06.092Z,12.20
2022-10-24T20:23:07.697Z,12.27
2022-10-24T20:28:09.546Z,12.23
2022-10-24T20:33:11.297Z,12.24
2022-10-24T20:38:13.023Z,12.25
2022-10-24T20:43:16.812Z,12.27
2022-10-24T20:48:18.406Z,12.27
2022-10-24T20:53:20.748Z,12.24
2022-10-24T20:58:22.339Z,12.22
2022-10-24T21:03:24.007Z,12.18
2022-10-24T21:08:25.684Z,12.14
2022-10-24T21:13:27.299Z,12.06
2022-10-24T21:18:28.995Z,12.08
2022-10-24T21:23:30.580Z,12.13
2022-10-24T21:28:32.609Z,12.19
2022-10-24T21:33:34.275Z,12.18
2022-10-24T21:38:36.043Z,12.20
2022-10-24T21:43:40.263Z,12.26
2022-10-24T21:48:43.572Z,12.25
2022-10-24T21:53:50.662Z,12.31
2022-10-24T21:58:54.924Z,12.29
2022-10-24T22:03:58.391Z,12.28
2022-10-24T22:09:00.916Z,12.36
2022-10-24T22:14:03.645Z,12.30
2022-10-24T22:19:05.810Z,12.27
2022-10-24T22:24:27.899Z,12.30
2022-10-24T22:29:29.685Z,12.27
2022-10-24T22:34:31.566Z,12.26
2022-10-24T22:39:33.525Z,12.30
2022-10-24T22:44:35.582Z,12.27
2022-10-24T22:50:01.912Z,12.27
2022-10-24T22:55:05.189Z,12.25
2022-10-24T23:00:09.040Z,12.20
2022-10-24T23:05:28.968Z,12.21
2022-10-24T23:10:31.145Z,12.19
2022-10-24T23:15:33.003Z,12.14
2022-10-24T23:20:48.835Z,12.13
2022-10-24T23:26:10.338Z,12.12
2022-10-24T23:31:12.415Z,12.07
2022-10-24T23:36:25.047Z,12.04
2022-10-24T23:41:29.932Z,12.03
2022-10-24T23:46:38.196Z,12.07
2022-10-24T23:51:56.451Z,12.09
2022-10-24T23:56:58.447Z,12.11
